Latest Weather Observations for Holsworthy

IDN60901

Issued at 10:21 am EDT Monday 3 October 2022 (issued every 10 minutes, with the page automatically refreshed every 10 minutes)

About weather observations | Map of Sydney area stations | Latest observations for Sydney area | Other Formats
Station Details ID: 066161 Name: HOLSWORTHY AERODROME AWS Lat: -33.99 Lon: 150.95 Height: 68.16 m
Data from the previous 72 hours. | See also: Recent months at Holsworthy
Date/Time
EDT
Temp
°C
App
Temp
°C
Dew
Point
°C
Rel
Hum
%
Delta-T
°C
Wind Press
QNH
hPa
Press
MSL
hPa
Rain since
9am
mm
Dir  Spd
km/h
Gust
km/h
Spd
kts
Gust
kts
03/10:00am 15.8 13.9 6.8 55 4.4 NW 6 11 3 6 1023.4 1023.3 0.0
03/09:30am 14.3 12.4 9.1 71 2.7 W 9 15 5 8 1023.3 1023.2 0.0
03/09:00am 13.0 11.3 10.0 82 1.5 WNW 9 11 5 6 1023.2 1023.1 0.0
03/08:30am 11.1 9.6 9.0 87 1.0 WNW 7 9 4 5 1023.0 1022.9 0.0
03/08:00am 9.3 7.7 8.1 92 0.6 WNW 6 9 3 5 1022.7 1022.6 0.0
03/07:30am 7.8 5.4 7.1 95 0.3 W 9 11 5 6 1022.4 1022.3 0.0
03/07:00am 6.8 5.9 6.1 95 0.3 CALM 0 2 0 1 1021.8 1021.7 0.0
03/06:30am 7.0 5.0 6.3 95 0.3 SW 6 7 3 4 1021.4 1021.3 0.0
03/06:00am 6.8 4.5 5.9 94 0.4 WSW 7 9 4 5 1021.3 1021.2 0.0
03/05:30am 7.2 5.1 6.5 95 0.3 SW 7 9 4 5 1021.0 1020.9 0.0
03/05:00am 7.7 5.3 7.0 95 0.3 SW 9 9 5 5 1020.8 1020.7 0.0
03/04:30am 8.1 5.4 7.5 96 0.3 WSW 11 13 6 7 1020.8 1020.7 0.0
03/04:00am 8.1 5.8 7.3 95 0.4 WSW 9 13 5 7 1020.8 1020.7 0.0
03/03:30am 7.9 6.0 6.8 93 0.5 WSW 6 9 3 5 1020.8 1020.7 0.0
03/03:00am 8.2 5.8 7.0 92 0.6 SW 9 11 5 6 1020.7 1020.6 0.0
03/02:30am 8.8 8.1 6.8 87 0.9 CALM 0 0 0 0 1020.9 1020.8 0.0
03/02:00am 10.3 8.2 8.1 86 1.1 SSW 9 11 5 6 1021.1 1021.0 0.0
03/01:30am 10.8 8.4 8.7 87 1.0 SSW 11 15 6 8 1021.3 1021.2 0.0
03/01:00am 10.1 7.8 9.0 93 0.5 SW 11 13 6 7 1021.3 1021.2 0.0
03/12:30am 9.2 7.1 8.1 93 0.5 SW 9 11 5 6 1021.4 1021.3 0.0
03/12:00am 9.5 9.1 8.3 92 0.6 CALM 0 0 0 0 1021.3 1021.2 0.0
 
Date/Time
EDT
Temp
°C
App
Temp
°C
Dew
Point
°C
Rel
Hum
%
Delta-T
°C
Wind Press
QNH
hPa
Press
MSL
hPa
Rain since
9am
mm
Dir  Spd
km/h
Gust
km/h
Spd
kts
Gust
kts
02/11:30pm 9.7 9.4 8.5 92 0.6 CALM 0 0 0 0 1021.2 1021.1 0.0
02/11:00pm 9.6 9.2 8.4 92 0.6 CALM 0 0 0 0 1021.2 1021.1 0.0
02/10:30pm 9.9 9.5 8.3 90 0.8 CALM 0 0 0 0 1021.2 1021.1 0.0
02/10:00pm 10.9 10.7 9.2 89 0.8 CALM 0 0 0 0 1021.0 1020.9 0.0
02/09:30pm 10.6 10.4 8.9 89 0.8 CALM 0 0 0 0 1020.8 1020.7 0.0
02/09:00pm 11.1 10.8 8.8 86 1.1 CALM 0 0 0 0 1020.3 1020.2 0.0
02/08:30pm 10.8 10.3 8.0 83 1.4 CALM 0 0 0 0 1020.0 1019.9 0.0
02/08:00pm 11.7 11.4 8.6 81 1.5 CALM 0 0 0 0 1019.6 1019.5 0.0
02/07:30pm 12.0 10.8 7.9 76 2.0 SSE 4 7 2 4 1019.2 1019.0 0.0
02/07:00pm 13.8 11.3 8.0 68 2.9 SE 11 15 6 8 1018.5 1018.3 0.0
02/06:30pm 14.7 11.8 8.0 64 3.4 ESE 13 17 7 9 1018.1 1017.9 0.0
02/06:00pm 15.4 12.6 8.4 63 3.5 ESE 13 19 7 10 1018.0 1017.8 0.0
02/05:30pm 15.7 12.9 8.4 62 3.7 ESE 13 22 7 12 1017.9 1017.7 0.0
02/05:00pm 16.0 12.6 9.2 64 3.5 ESE 17 26 9 14 1018.0 1017.8 0.0
02/04:30pm 16.4 12.9 8.9 61 3.9 ESE 17 22 9 12 1017.6 1017.4 0.0
02/04:00pm 16.6 12.9 9.3 62 3.8 SE 19 28 10 15 1017.4 1017.2 0.0
02/03:30pm 16.1 12.2 9.3 64 3.5 ESE 20 30 11 16 1017.5 1017.3 0.0
02/03:00pm 16.2 12.4 9.8 66 3.3 ESE 20 30 11 16 1017.6 1017.4 0.0
02/02:30pm 15.8 12.7 12.2 79 2.0 SE 20 28 11 15 1017.9 1017.7 0.0
02/02:00pm 16.3 12.4 9.3 63 3.6 ESE 20 32 11 17 1018.1 1017.9 0.0
02/01:30pm 15.4 11.4 8.4 63 3.6 SE 19 30 10 16 1018.6 1018.4 0.0
02/01:00pm 16.8 14.7 5.7 48 5.4 WNW 6 19 3 10 1018.9 1018.7 0.0
02/12:30pm 17.4 15.9 8.5 56 4.6 N 6 13 3 7 1019.2 1019.0 0.0
02/12:00pm 16.1 14.1 6.3 52 4.8 E 6 9 3 5 1019.5 1019.3 0.0
02/11:30am 15.9 14.0 7.4 57 4.2 WSW 7 13 4 7 1019.9 1019.8 0.0
02/11:00am 16.0 14.2 7.0 55 4.4 SW 6 9 3 5 1020.2 1020.1 0.0
02/10:30am 14.7 12.9 7.3 61 3.7 WSW 6 11 3 6 1020.5 1020.4 0.0
02/10:00am 14.7 14.0 9.9 73 2.5 N 4 7 2 4 1020.7 1020.6 0.0
02/09:30am 12.8 11.6 9.6 81 1.6 WNW 6 9 3 5 1020.8 1020.7 0.0
02/09:00am 11.4 9.1 9.1 86 1.1 WSW 11 17 6 9 1020.8 1020.7 2.0
02/08:30am 10.6 8.0 9.2 91 0.7 W 13 17 7 9 1020.7 1020.6 2.0
02/08:00am 9.8 7.5 9.0 95 0.4 WSW 11 15 6 8 1020.6 1020.5 1.8
02/07:30am 9.5 7.6 9.0 97 0.2 WSW 9 13 5 7 1020.4 1020.3 1.8
02/07:00am 9.2 6.8 8.7 97 0.2 WSW 11 13 6 7 1020.3 1020.2 1.8
02/06:30am 9.0 7.5 8.6 97 0.2 WSW 6 7 3 4 1020.1 1020.0 1.8
02/06:00am 9.1 7.1 8.6 97 0.2 WSW 9 13 5 7 1019.7 1019.6 1.8
02/05:30am 9.3 7.3 8.8 97 0.2 WSW 9 11 5 6 1019.5 1019.3 1.8
02/05:00am 9.3 8.7 8.8 97 0.2 SW 2 6 1 3 1019.4 1019.2 1.8
02/04:30am 9.0 7.0 8.6 97 0.2 SW 9 13 5 7 1019.4 1019.2 1.8
02/04:00am 8.8 7.1 8.2 96 0.3 WSW 7 9 4 5 1019.4 1019.2 1.8
02/03:30am 9.2 7.1 8.4 95 0.4 WSW 9 11 5 6 1019.8 1019.7 1.8
02/03:00am 9.5 7.1 8.7 95 0.4 SW 11 13 6 7 1020.1 1020.0 1.8
02/01:30am 9.7 7.4 8.9 95 0.4 WSW 11 13 6 7 1020.4 1020.3 1.8
02/01:00am 9.9 8.0 9.0 94 0.4 SW 9 11 5 6 1020.7 1020.6 1.8
02/12:30am 10.3 8.5 9.4 94 0.5 WSW 9 13 5 7 1021.2 1021.1 1.8
02/12:00am 10.9 9.8 9.8 93 0.6 SW 6 9 3 5 1021.5 1021.4 1.8
 
Date/Time
EDT
Temp
°C
App
Temp
°C
Dew
Point
°C
Rel
Hum
%
Delta-T
°C
Wind Press
QNH
hPa
Press
MSL
hPa
Rain since
9am
mm
Dir  Spd
km/h
Gust
km/h
Spd
kts
Gust
kts
01/11:30pm 11.0 9.2 9.6 91 0.7 S 9 15 5 8 1021.8 1021.7 1.8
01/11:00pm 10.4 9.0 9.5 94 0.4 SSW 7 13 4 7 1022.1 1022.0 1.6
01/10:30pm 10.4 8.9 9.3 93 0.5 WSW 7 9 4 5 1022.1 1022.0 1.6
01/10:00pm 10.7 8.5 9.3 91 0.7 SSW 11 15 6 8 1022.3 1022.2 1.6
01/09:30pm 10.9 8.8 9.8 93 0.6 SW 11 15 6 8 1022.3 1022.2 1.6
01/09:04pm 11.5 10.2 9.9 90 0.8 SSW 7 9 4 5 1022.4 1022.3 1.6
01/09:00pm 11.4 10.0 9.7 89 0.9 S 7 9 4 5 1022.4 1022.3 1.6
01/08:49pm 11.6 8.6 9.3 86 1.2 SSE 15 20 8 11 1022.5 1022.4 1.4
01/08:30pm 11.6 9.2 8.6 82 1.5 SE 11 17 6 9 1022.4 1022.3 0.2
01/08:00pm 11.0 9.2 9.3 89 0.8 SSW 9 13 5 7 1022.4 1022.3 0.2
01/07:30pm 11.0 9.2 9.3 89 0.9 SW 9 13 5 7 1022.1 1022.0 0.2
01/07:00pm 11.4 10.1 9.1 86 1.1 S 6 9 3 5 1022.1 1022.0 0.2
01/06:30pm 12.5 11.1 9.7 83 1.4 SSW 7 9 4 5 1022.0 1021.9 0.2
01/06:00pm 13.1 11.3 9.5 79 1.8 SSW 9 11 5 6 1021.8 1021.7 0.2
01/05:30pm 13.7 12.4 10.1 79 1.9 SSW 7 13 4 7 1021.7 1021.6 0.2
01/05:00pm 13.7 11.8 10.5 81 1.7 SSW 11 17 6 9 1021.4 1021.3 0.2
01/04:30pm 13.7 11.6 9.9 78 2.0 S 11 17 6 9 1021.3 1021.2 0.2
01/04:00pm 14.6 10.5 8.5 67 3.1 SSE 20 30 11 16 1021.3 1021.2 0.2
01/03:30pm 16.2 12.3 6.9 54 4.6 SE 17 20 9 11 1021.2 1021.1 0.2
01/03:00pm 16.1 12.4 7.8 58 4.2 SSE 17 24 9 13 1021.3 1021.2 0.2
01/02:30pm 14.3 11.0 9.5 73 2.5 SSE 17 28 9 15 1021.8 1021.7 0.2
01/02:00pm 16.4 12.3 7.9 57 4.3 SE 19 26 10 14 1021.9 1021.8 0.0
01/01:30pm 17.0 11.4 5.6 47 5.5 SE 24 33 13 18 1022.1 1022.0 0.0
01/01:00pm 17.4 12.8 6.3 48 5.4 SE 20 28 11 15 1022.5 1022.4 0.0
01/12:30pm 17.0 12.5 6.2 49 5.3 SE 19 26 10 14 1022.9 1022.8 0.0
01/12:00pm 16.6 12.3 7.8 56 4.4 SE 20 30 11 16 1023.3 1023.2 0.0
01/11:30am 17.1 12.7 7.2 52 5.0 SSE 20 28 11 15 1023.7 1023.6 0.0
01/11:00am 15.1 13.5 10.3 73 2.5 SSW 9 15 5 8 1024.1 1024.0 0.0
01/10:30am 15.9 11.8 7.9 59 4.0 S 19 26 10 14 1024.3 1024.2 0.0
01/10:00am 15.6 11.5 7.9 60 3.9 SSE 19 32 10 17 1024.6 1024.5 0.0
01/09:30am 15.5 12.7 8.7 64 3.5 SSE 13 17 7 9 1024.7 1024.7 0.0
01/09:00am 14.5 11.6 9.7 73 2.5 S 15 24 8 13 1024.8 1024.8 10.8
01/08:30am 13.3 11.3 10.3 82 1.6 SW 11 20 6 11 1024.8 1024.8 10.8
01/08:00am 13.3 11.3 10.3 82 1.6 WSW 11 17 6 9 1024.7 1024.7 10.8
01/07:30am 12.2 10.2 10.3 88 1.0 WSW 11 17 6 9 1024.5 1024.5 10.8
01/07:00am 11.7 9.7 10.1 90 0.8 WSW 11 17 6 9 1024.4 1024.4 10.8
01/06:30am 11.4 9.0 10.0 91 0.7 SW 13 19 7 10 1024.3 1024.3 10.8
01/06:00am 11.1 9.1 10.0 93 0.6 WSW 11 15 6 8 1024.1 1024.1 10.8
01/05:30am 11.0 9.4 10.1 94 0.5 WSW 9 13 5 7 1023.9 1023.9 10.8
01/05:00am 11.0 8.9 9.9 93 0.6 WSW 11 15 6 8 1023.9 1023.9 10.8
01/04:30am 11.2 9.4 9.5 89 0.9 SW 9 13 5 7 1023.7 1023.7 10.8
01/04:00am 11.5 9.8 9.9 90 0.8 SSW 9 13 5 7 1023.6 1023.6 10.8
01/03:30am 11.8 9.5 10.5 92 0.7 SW 13 17 7 9 1023.7 1023.7 10.8
01/03:00am 11.9 9.6 10.5 91 0.7 SW 13 17 7 9 1023.8 1023.8 10.8
01/02:30am 12.1 10.5 10.3 89 0.9 SW 9 13 5 7 1023.9 1023.9 10.8
01/02:00am 12.0 9.8 10.7 92 0.7 SW 13 17 7 9 1024.1 1024.1 10.8
01/01:30am 12.0 10.0 10.2 89 0.9 SW 11 15 6 8 1024.4 1024.4 10.8
01/01:00am 12.3 10.7 10.2 87 1.1 SW 9 13 5 7 1024.5 1024.5 10.8
01/12:30am 13.2 10.6 9.5 78 1.9 S 13 24 7 13 1024.8 1024.8 10.8
01/12:00am 13.3 12.1 9.5 78 1.9 SSE 6 7 3 4 1024.9 1024.9 10.8
 
Date/Time
EDT
Temp
°C
App
Temp
°C
Dew
Point
°C
Rel
Hum
%
Delta-T
°C
Wind Press
QNH
hPa
Press
MSL
hPa
Rain since
9am
mm
Dir  Spd
km/h
Gust
km/h
Spd
kts
Gust
kts
30/11:30pm 13.5 11.7 9.6 77 2.0 SSE 9 11 5 6 1025.2 1025.2 10.8
30/11:00pm 13.5 11.6 9.2 75 2.2 SSE 9 13 5 7 1025.0 1025.0 10.8
30/10:30pm 13.8 11.2 9.5 75 2.2 SSE 13 17 7 9 1025.0 1025.0 10.8
30/10:00pm 13.9 11.5 10.1 78 2.0 SE 13 19 7 10 1024.9 1024.9 10.8
30/09:30pm 14.0 11.7 10.4 79 1.9 SE 13 17 7 9 1025.1 1025.1 10.8
30/09:00pm 13.9 11.6 10.5 80 1.8 SE 13 17 7 9 1025.3 1025.3 10.8
30/08:30pm 13.7 11.5 10.7 82 1.6 SSE 13 19 7 10 1025.3 1025.3 10.8
30/08:00pm 13.7 12.1 11.4 86 1.2 SE 11 19 6 10 1025.2 1025.2 10.8
30/07:30pm 13.4 12.3 12.1 92 0.7 SSW 9 13 5 7 1025.2 1025.2 10.8
30/07:23pm 13.5 11.7 12.2 92 0.7 S 13 20 7 11 1025.1 1025.1 10.8
30/07:00pm 13.2 10.3 12.3 94 0.5 SSE 19 30 10 16 1025.3 1025.3 9.0
30/06:30pm 13.6 10.7 12.3 92 0.7 SSE 19 26 10 14 1025.1 1025.1 4.2
30/06:12pm 14.1 13.3 13.0 93 0.6 SW 9 20 5 11 1024.9 1024.9 2.2
30/06:00pm 14.2 13.8 12.9 92 0.7 SW 7 11 4 6 1024.8 1024.8 1.6
30/05:30pm 14.2 13.4 12.8 91 0.8 SSW 9 13 5 7 1024.6 1024.6 1.4
30/05:00pm 14.4 11.6 12.6 89 1.0 SSE 19 30 10 16 1024.5 1024.5 1.4
30/04:30pm 15.0 12.6 11.4 79 1.9 SSE 15 22 8 12 1024.3 1024.3 1.0
30/04:00pm 16.3 13.5 11.2 72 2.7 S 17 26 9 14 1024.1 1024.1 1.0
30/03:30pm 17.6 13.8 11.2 66 3.5 SSE 22 33 12 18 1023.8 1023.8 1.0
30/03:00pm 17.2 13.5 12.7 75 2.5 SSE 24 39 13 21 1023.8 1023.8 1.0
30/02:30pm 15.4 11.5 12.0 80 1.9 S 24 35 13 19 1024.1 1024.1 1.0
30/02:08pm 16.0 10.9 12.0 77 2.2 SSE 30 48 16 26 1024.1 1024.1 0.8
30/02:00pm 17.1 12.5 11.2 68 3.2 S 26 39 14 21 1023.8 1023.8 0.4
30/01:35pm 17.7 12.3 10.8 64 3.7 SSE 30 50 16 27 1023.8 1023.8 0.4
30/01:30pm 18.8 13.6 10.1 57 4.7 SSE 28 43 15 23 1023.6 1023.6 0.4
30/01:00pm 18.0 12.6 9.6 58 4.4 S 28 46 15 25 1024.0 1024.0 0.4
30/12:59pm 18.0 12.6 9.4 57 4.5 S 28 46 15 25 1023.9 1023.9 0.4
30/12:30pm 18.4 13.6 10.3 59 4.3 S 26 44 14 24 1024.2 1024.2 0.4
30/12:18pm 18.4 13.3 10.5 60 4.3 S 28 46 15 25 1024.3 1024.3 0.4
30/12:00pm 17.4 13.4 11.9 70 3.0 S 24 37 13 20 1024.5 1024.5 0.4
30/11:31am 17.9 12.7 10.3 61 4.1 S 28 46 15 25 1024.4 1024.4 0.4
30/11:30am 18.1 13.4 10.7 62 4.0 S 26 46 14 25 1024.5 1024.5 0.4
30/11:04am 16.9 11.8 10.7 67 3.3 S 28 46 15 25 1024.6 1024.6 0.4
30/11:00am 16.9 12.8 11.6 71 2.9 S 24 37 13 20 1024.8 1024.8 0.4
30/10:30am 16.4 13.4 12.4 77 2.2 S 20 39 11 21 1025.1 1025.1 0.4
30/10:21am 15.5 12.5 12.4 82 1.7 S 20 33 11 18 1025.1 1025.1 0.4
30/10:07am 14.9 10.9 11.7 81 1.7 SSW 24 37 13 20 1025.1 1025.1 0.2
30/10:00am 15.4 11.6 11.0 75 2.3 S 22 35 12 19 1025.2 1025.2 0.0
30/09:30am 15.3 11.5 11.1 76 2.2 S 22 39 12 21 1025.3 1025.3 0.0

Latest Capital City Observations: Canberra | Sydney | Melbourne | Brisbane | Adelaide | Perth | Hobart | Darwin

Other formats

Comma delimited format used in spreadsheet applications
http://www.bom.gov.au/fwo/IDN60901/IDN60901.95761.axf

JavaScript Object Notation format (JSON) in row-major order
http://www.bom.gov.au/fwo/IDN60901/IDN60901.95761.json

Data quality

Most of these data are generated automatically and are frequently updated. Quality checks on data are not normally performed. It is possible for incorrect values to appear. Refer to information at About Latest Weather Observations and please check the disclaimer before using these data.